map of GFY home
Great Circle Mapper logo
GFY - Airport
Location
City:  Grootfontein, Namibia
ICAO / IATA:FYGF / GFY

Details
Type:Airport (Aerodrome, Airfield)
Latitude:1936'08"S (-19.602166)
Longitude:1807'22"E (18.122667)
Datum:other
Elevation:4636 ft (1413 m)
Runways:2
Longest:11680 × 148 ft (3560 × 45 m), paved

Time
Time Zone:UTC+1 (DST+2)
Local Time:

Weather
METAR:FYGF 021200Z AUTO 01006KT //// // ////// 33/M04 Q1019

Related Locations
Nearby:
Farthest:BKH: 12222 mi / 19669 km
Kekaha, Kauai [Barking Sands PMRF Airport], Kauai, HI, US

Find:

   beyond  
but within

Other Information
Maps:
NOTAMs:
Links:
Sources:

  
flag of Namibia   

Sectional Chart

Flight Planning
at skyvector.com

Satellite Image

Google Maps Satellite View

 

Copyright © 2004-2014 Karl L. Swartz. All rights reserved.
The Great Circle Mapper name and logo are trademarks of the Great Circle Mapper.
All other trademarks mentioned herein belong to their respective owners.
Please see credits for attibutions and further copyright information.

  Follow gcmap on Facebook Follow gcmap on Twitter

hCard Microformat

Geo Microformat